You are not logged in, Click here to log in
Calvi-Sainte-Catherine Airport / LFKC Calvi/Sainte-Catherine
ICAO: LFKC Country: Calvi/Sainte-Catherine
Latitude: 42.5244 Longitude: 8.79306
Total Arrivals: 1 Total Departures: 1
Latest Arrival: (-). Latest Departure: A57581 (LFKC-LFPG)Lun. Wang
Scenery:
METAR : LFKC 090730Z AUTO 21013KT 180V250 9999 FEW024 SCT034 14/10 Q1013 TEMPO SHRA SCT020TCU BECMG 21015G30KT

Calvi-Sainte-Catherine Airport

You are accessing this site from IP address 100.26.176.182. Virtual Airline. CMS by phpVMS.Website designed by Zumeweb and edited by Theo Bearman.
There is 0 User(s) Online: | and 10 Guest(s) Online.
All information on this site is for fight simulation purposes only. This site is for flight logging for pilots of Virtual Airline&模擬飛行論壇 FlySim only.